createdAt,value
2022-08-11T00:02:29.713Z,6.83
2022-08-11T00:05:05.363Z,2.90
2022-08-11T00:07:34.452Z,2.87
2022-08-11T00:10:03.416Z,4.60
2022-08-11T00:12:31.937Z,5.50
2022-08-11T00:15:02.321Z,3.77
2022-08-11T00:17:32.996Z,4.57
2022-08-11T00:20:15.908Z,3.27
2022-08-11T00:22:49.936Z,3.90
2022-08-11T00:25:20.203Z,5.63
2022-08-11T00:27:49.465Z,3.00
2022-08-11T00:30:18.414Z,3.57
2022-08-11T00:32:56.577Z,3.57
2022-08-11T00:35:55.613Z,3.17
2022-08-11T00:38:26.456Z,4.20
2022-08-11T00:41:00.644Z,3.37
2022-08-11T00:43:48.417Z,3.93
2022-08-11T00:46:30.375Z,3.30
2022-08-11T00:49:14.517Z,3.73
2022-08-11T00:52:04.514Z,4.00
2022-08-11T00:55:09.656Z,3.00
2022-08-11T00:58:13.381Z,5.00
2022-08-11T01:01:09.335Z,3.47
2022-08-11T01:04:17.633Z,3.33
2022-08-11T01:07:16.545Z,6.20
2022-08-11T01:10:24.434Z,4.43
2022-08-11T01:13:08.432Z,2.97
2022-08-11T01:16:05.051Z,5.23
2022-08-11T01:19:22.069Z,6.87
2022-08-11T01:22:29.397Z,4.00
2022-08-11T01:25:57.338Z,4.17
2022-08-11T01:29:04.367Z,3.27
2022-08-11T01:31:57.079Z,3.20
2022-08-11T01:35:14.930Z,4.97
2022-08-11T01:38:21.980Z,3.90
2022-08-11T01:41:16.163Z,3.13
2022-08-11T01:44:31.615Z,3.20
2022-08-11T01:47:35.640Z,3.13
2022-08-11T01:50:13.701Z,4.97
2022-08-11T01:52:55.166Z,3.60
2022-08-11T01:55:33.478Z,5.17
2022-08-11T01:58:09.699Z,4.33
2022-08-11T02:00:49.676Z,4.67
2022-08-11T02:03:25.588Z,4.20
2022-08-11T02:06:01.595Z,5.33
2022-08-11T02:08:44.771Z,3.87
2022-08-11T02:11:37.573Z,4.03
2022-08-11T02:14:22.603Z,4.90
2022-08-11T02:17:03.532Z,3.70
2022-08-11T02:20:01.400Z,3.60
2022-08-11T02:22:54.313Z,4.10
2022-08-11T02:25:28.463Z,6.00
2022-08-11T02:28:04.864Z,5.33
2022-08-11T02:30:39.760Z,3.87
2022-08-11T02:33:24.839Z,3.70
2022-08-11T02:36:09.052Z,4.70
2022-08-11T02:38:50.036Z,6.03
2022-08-11T02:41:43.923Z,4.80
2022-08-11T02:44:25.884Z,4.87
2022-08-11T02:47:24.403Z,6.70
2022-08-11T02:50:07.177Z,4.83
2022-08-11T02:52:45.388Z,3.53
2022-08-11T02:55:48.691Z,4.90
2022-08-11T02:58:15.771Z,3.80
2022-08-11T03:00:51.482Z,2.83
2022-08-11T03:03:25.704Z,3.20
2022-08-11T03:06:10.617Z,3.00
2022-08-11T03:08:52.609Z,3.80
2022-08-11T03:11:57.832Z,3.07
2022-08-11T03:14:49.826Z,3.20
2022-08-11T03:17:29.624Z,4.47
2022-08-11T03:20:12.356Z,5.90
2022-08-11T03:22:50.921Z,3.13
2022-08-11T03:25:31.884Z,3.00
2022-08-11T03:28:10.692Z,3.30
2022-08-11T03:30:47.165Z,6.43
2022-08-11T03:33:41.349Z,4.63
2022-08-11T03:36:33.298Z,4.10
2022-08-11T03:39:30.113Z,3.83
2022-08-11T03:42:10.290Z,4.13
2022-08-11T03:44:53.483Z,5.00
2022-08-11T03:47:40.366Z,3.30
2022-08-11T03:50:33.557Z,3.30
2022-08-11T03:53:16.339Z,5.63
2022-08-11T03:56:19.155Z,3.97
2022-08-11T03:59:21.062Z,3.83
2022-08-11T04:02:16.166Z,5.90
2022-08-11T04:05:28.019Z,4.67
2022-08-11T04:08:33.915Z,4.60
2022-08-11T04:11:26.725Z,4.40
2022-08-11T04:14:43.898Z,4.20
2022-08-11T04:17:39.258Z,3.93
2022-08-11T04:20:30.117Z,4.00
2022-08-11T04:24:36.678Z,4.27
2022-08-11T04:26:37.262Z,4.40
2022-08-11T04:29:25.733Z,6.03
2022-08-11T04:32:22.226Z,4.10
2022-08-11T04:35:09.465Z,5.07
2022-08-11T04:37:57.193Z,4.60
2022-08-11T04:41:14.475Z,3.53
2022-08-11T04:44:31.738Z,2.83
2022-08-11T04:48:01.496Z,4.03
2022-08-11T04:51:16.512Z,4.80
2022-08-11T04:54:16.136Z,3.20
2022-08-11T04:57:06.035Z,3.50
2022-08-11T05:00:20.867Z,3.50
2022-08-11T05:03:24.934Z,2.90
2022-08-11T05:06:12.738Z,3.20
2022-08-11T05:09:12.854Z,3.00
2022-08-11T05:12:07.555Z,3.87
2022-08-11T05:14:58.114Z,2.60
2022-08-11T05:17:56.804Z,2.50
2022-08-11T05:20:45.177Z,3.83
2022-08-11T05:23:31.999Z,2.63
2022-08-11T05:26:47.981Z,2.73
2022-08-11T05:29:54.656Z,2.77
2022-08-11T05:32:42.549Z,2.73
2022-08-11T05:35:18.512Z,3.00
2022-08-11T05:38:19.631Z,3.23
2022-08-11T05:41:10.731Z,2.97
2022-08-11T05:44:19.737Z,2.70
2022-08-11T05:47:09.856Z,2.87
2022-08-11T05:49:56.717Z,2.80
2022-08-11T05:52:46.810Z,2.73
2022-08-11T05:55:35.156Z,4.43
2022-08-11T05:58:05.712Z,4.28
2022-08-11T06:00:43.538Z,3.30
2022-08-11T06:03:21.587Z,2.90
2022-08-11T06:05:51.776Z,3.25
2022-08-11T06:08:31.354Z,2.78
2022-08-11T06:11:06.294Z,3.33
2022-08-11T06:13:35.859Z,4.10
2022-08-11T06:16:07.036Z,2.25
2022-08-11T06:18:37.918Z,5.32
2022-08-11T06:21:12.276Z,3.58
2022-08-11T06:23:42.577Z,2.33
2022-08-11T06:26:11.925Z,2.33
2022-08-11T06:28:45.081Z,2.28
2022-08-11T06:31:15.151Z,1.88
2022-08-11T06:33:56.680Z,2.55
2022-08-11T06:36:34.363Z,2.05
2022-08-11T06:39:15.612Z,3.17
2022-08-11T06:41:49.611Z,2.08
2022-08-11T06:44:25.278Z,4.20
2022-08-11T06:46:56.148Z,2.55
2022-08-11T06:49:52.982Z,2.05
2022-08-11T06:52:45.235Z,2.30
2022-08-11T06:55:55.747Z,4.80
2022-08-11T06:58:44.727Z,3.08
2022-08-11T07:01:16.808Z,4.05
2022-08-11T07:03:48.941Z,3.47
2022-08-11T07:06:35.964Z,4.37
2022-08-11T07:10:02.604Z,2.10
2022-08-11T07:12:57.758Z,2.43
2022-08-11T07:16:11.318Z,2.00
2022-08-11T07:18:54.452Z,1.90
2022-08-11T07:22:02.390Z,2.33
2022-08-11T07:25:02.691Z,2.27
2022-08-11T07:27:55.532Z,2.00
2022-08-11T07:30:26.905Z,3.20
2022-08-11T07:32:57.857Z,3.37
2022-08-11T07:35:32.454Z,2.10
2022-08-11T07:38:07.136Z,2.00
2022-08-11T07:40:37.445Z,2.83
2022-08-11T07:43:08.030Z,2.00
2022-08-11T07:45:54.731Z,3.50
2022-08-11T07:48:40.476Z,2.50
2022-08-11T07:51:26.668Z,1.93
2022-08-11T07:53:58.318Z,4.13
2022-08-11T08:01:21.753Z,4.77
2022-08-11T08:04:09.496Z,2.47
2022-08-11T08:06:56.359Z,2.47
2022-08-11T08:09:43.920Z,1.90
2022-08-11T08:12:31.697Z,2.37
2022-08-11T08:15:18.078Z,1.97
2022-08-11T08:18:09.629Z,2.47
2022-08-11T08:20:45.431Z,2.27
2022-08-11T08:23:14.100Z,4.97
2022-08-11T08:25:46.089Z,3.40
2022-08-11T08:28:17.072Z,3.63
2022-08-11T08:30:47.944Z,2.20
2022-08-11T08:33:20.319Z,5.77
2022-08-11T08:35:54.759Z,5.23
2022-08-11T08:38:25.071Z,5.87
2022-08-11T08:40:56.418Z,2.20
2022-08-11T08:43:25.440Z,3.63
2022-08-11T08:45:57.025Z,2.57
2022-08-11T08:48:27.128Z,2.83
2022-08-11T08:51:19.639Z,2.33
2022-08-11T08:53:56.474Z,3.07
2022-08-11T08:56:30.191Z,3.53
2022-08-11T08:59:02.003Z,3.50
2022-08-11T09:01:33.044Z,4.47
2022-08-11T09:04:09.164Z,2.43
2022-08-11T09:06:42.940Z,2.97
2022-08-11T09:09:13.262Z,2.97
2022-08-11T09:11:54.379Z,6.60
2022-08-11T09:14:25.101Z,3.50
2022-08-11T09:16:54.102Z,3.07
2022-08-11T09:19:22.882Z,3.20
2022-08-11T09:22:13.385Z,2.33
2022-08-11T09:24:59.926Z,4.37
2022-08-11T09:27:29.757Z,2.97
2022-08-11T09:29:58.205Z,2.23
2022-08-11T09:32:28.946Z,2.67
2022-08-11T09:34:57.933Z,3.40
2022-08-11T09:37:54.842Z,5.27
2022-08-11T09:40:32.427Z,3.17
2022-08-11T09:43:22.864Z,3.50
2022-08-11T09:45:53.212Z,2.10
2022-08-11T09:48:22.807Z,2.13
2022-08-11T09:50:53.985Z,4.97
2022-08-11T09:53:36.553Z,3.93
2022-08-11T09:56:28.666Z,4.50
2022-08-11T09:58:59.076Z,2.17
2022-08-11T10:01:31.258Z,2.03
2022-08-11T10:04:02.618Z,2.63
2022-08-11T10:06:54.097Z,3.20
2022-08-11T10:09:25.486Z,2.80
2022-08-11T10:11:58.628Z,4.40
2022-08-11T10:14:48.487Z,2.13
2022-08-11T10:17:19.745Z,3.30
2022-08-11T10:20:04.838Z,2.23
2022-08-11T10:22:53.481Z,3.33
2022-08-11T10:25:40.408Z,2.13
2022-08-11T10:28:32.744Z,2.83
2022-08-11T10:31:18.488Z,3.27
2022-08-11T10:34:04.111Z,2.30
2022-08-11T10:36:34.847Z,3.33
2022-08-11T10:39:05.385Z,2.13
2022-08-11T10:42:06.758Z,1.67
2022-08-11T10:44:40.216Z,2.20
2022-08-11T10:47:30.971Z,1.97
2022-08-11T10:50:17.498Z,5.30
2022-08-11T10:53:06.466Z,3.13
2022-08-11T10:55:52.663Z,4.00
2022-08-11T10:58:39.861Z,2.70
2022-08-11T11:01:08.688Z,2.00
2022-08-11T11:03:38.995Z,1.97
2022-08-11T11:06:28.870Z,2.30
2022-08-11T11:09:05.370Z,2.50
2022-08-11T11:11:57.255Z,3.43
2022-08-11T11:14:50.779Z,1.83
2022-08-11T11:17:45.997Z,5.20
2022-08-11T11:20:37.832Z,2.20
2022-08-11T11:23:11.189Z,2.20
2022-08-11T11:26:27.665Z,1.80
2022-08-11T11:29:45.482Z,2.03
2022-08-11T11:32:25.053Z,2.47
2022-08-11T11:35:09.853Z,2.63
2022-08-11T11:37:40.670Z,1.90
2022-08-11T11:40:28.769Z,5.35
2022-08-11T11:43:01.339Z,3.60
2022-08-11T11:45:29.959Z,3.50
2022-08-11T11:48:00.613Z,4.85
2022-08-11T11:50:33.138Z,2.55
2022-08-11T11:53:06.345Z,1.93
2022-08-11T11:55:35.334Z,1.67
2022-08-11T11:58:22.986Z,1.55
2022-08-11T12:01:09.895Z,1.85
2022-08-11T12:03:38.935Z,2.57
2022-08-11T12:06:09.124Z,1.77
2022-08-11T12:08:39.231Z,3.10
2022-08-11T12:11:27.694Z,2.92
2022-08-11T12:13:58.488Z,1.80
2022-08-11T12:16:35.837Z,2.00
2022-08-11T12:19:08.310Z,3.33
2022-08-11T12:21:37.624Z,3.40
2022-08-11T12:24:29.390Z,1.92
2022-08-11T12:27:17.677Z,5.55
2022-08-11T12:29:54.517Z,2.40
2022-08-11T12:32:26.626Z,2.80
2022-08-11T12:34:56.829Z,2.55
2022-08-11T12:37:30.741Z,2.50
2022-08-11T12:40:42.134Z,2.90
2022-08-11T12:43:38.626Z,4.82
2022-08-11T12:46:11.046Z,2.45
2022-08-11T12:49:03.162Z,5.10
2022-08-11T12:52:11.338Z,9.45
2022-08-11T12:54:51.778Z,2.10
2022-08-11T12:57:51.291Z,1.75
2022-08-11T13:00:38.274Z,2.13
2022-08-11T13:03:26.704Z,4.45
2022-08-11T13:05:57.333Z,1.95
2022-08-11T13:08:27.858Z,3.28
2022-08-11T13:11:16.018Z,3.80
2022-08-11T13:13:52.430Z,1.77
2022-08-11T13:16:25.583Z,3.45
2022-08-11T13:18:54.391Z,1.77
2022-08-11T13:21:23.975Z,1.50
2022-08-11T13:24:01.656Z,3.00
2022-08-11T13:26:36.960Z,4.85
2022-08-11T13:29:18.517Z,2.55
2022-08-11T13:31:47.777Z,1.95
2022-08-11T13:34:17.010Z,1.42
2022-08-11T13:36:45.452Z,2.08
2022-08-11T13:39:14.970Z,1.42
2022-08-11T13:41:47.700Z,1.48
2022-08-11T13:44:24.666Z,1.20
2022-08-11T13:46:54.159Z,2.60
2022-08-11T13:49:23.084Z,2.08
2022-08-11T13:51:53.609Z,1.50
2022-08-11T13:54:25.072Z,1.52
2022-08-11T13:56:56.136Z,1.85
2022-08-11T13:59:30.216Z,1.70
2022-08-11T14:02:21.920Z,2.15
2022-08-11T14:04:56.311Z,3.10
2022-08-11T14:07:26.964Z,1.60
2022-08-11T14:09:59.169Z,1.70
2022-08-11T14:12:48.327Z,2.08
2022-08-11T14:15:21.495Z,1.70
2022-08-11T14:17:53.931Z,4.32
2022-08-11T14:20:40.002Z,1.80
2022-08-11T14:23:12.412Z,2.55
2022-08-11T14:26:03.021Z,2.28
2022-08-11T14:28:39.995Z,3.95
2022-08-11T14:31:15.402Z,2.60
2022-08-11T14:34:00.575Z,2.45
2022-08-11T14:36:34.038Z,1.73
2022-08-11T14:39:06.857Z,2.00
2022-08-11T14:42:11.029Z,2.53
2022-08-11T14:45:01.279Z,2.00
2022-08-11T14:47:33.622Z,4.53
2022-08-11T14:50:11.700Z,3.30
2022-08-11T14:52:46.787Z,1.42
2022-08-11T14:55:33.656Z,2.30
2022-08-11T14:58:03.400Z,3.05
2022-08-11T15:00:34.227Z,2.08
2022-08-11T15:03:11.279Z,2.17
2022-08-11T15:05:56.765Z,1.85
2022-08-11T15:08:42.282Z,4.43
2022-08-11T15:11:32.290Z,1.75
2022-08-11T15:14:01.802Z,1.77
2022-08-11T15:16:48.615Z,3.17
2022-08-11T15:19:21.167Z,2.35
2022-08-11T15:22:07.550Z,3.45
2022-08-11T15:24:36.989Z,1.75
2022-08-11T15:30:33.381Z,2.57
2022-08-11T15:33:24.233Z,1.93
2022-08-11T15:36:13.513Z,4.87
2022-08-11T15:38:45.960Z,1.50
2022-08-11T15:41:36.534Z,2.13
2022-08-11T15:44:51.229Z,2.13
2022-08-11T15:47:18.353Z,1.53
2022-08-11T15:50:10.927Z,2.30
2022-08-11T15:52:46.686Z,2.10
2022-08-11T15:55:16.456Z,2.93
2022-08-11T15:58:03.249Z,1.87
2022-08-11T16:00:49.172Z,2.13
2022-08-11T16:04:08.221Z,1.40
2022-08-11T16:06:46.302Z,2.90
2022-08-11T16:09:21.584Z,2.03
2022-08-11T16:11:50.909Z,1.53
2022-08-11T16:14:37.583Z,6.77
2022-08-11T16:17:08.121Z,1.50
2022-08-11T16:19:38.002Z,2.67
2022-08-11T16:22:10.234Z,1.90
2022-08-11T16:27:06.891Z,2.57
2022-08-11T16:27:36.295Z,1.60
2022-08-11T16:30:06.937Z,1.47
2022-08-11T16:32:37.832Z,2.03
2022-08-11T16:35:27.691Z,1.47
2022-08-11T16:38:15.601Z,2.53
2022-08-11T16:40:47.925Z,1.40
2022-08-11T16:43:36.903Z,1.40
2022-08-11T16:46:32.654Z,3.53
2022-08-11T16:49:03.897Z,1.63
2022-08-11T16:51:32.963Z,1.43
2022-08-11T16:54:05.804Z,1.93
2022-08-11T16:56:39.765Z,1.70
2022-08-11T16:59:15.301Z,1.63
2022-08-11T17:01:47.450Z,1.47
2022-08-11T17:04:50.059Z,4.40
2022-08-11T17:07:42.041Z,2.47
2022-08-11T17:10:51.076Z,1.40
2022-08-11T17:13:30.283Z,4.07
2022-08-11T17:16:08.984Z,1.33
2022-08-11T17:18:44.813Z,1.70
2022-08-11T17:21:17.099Z,1.40
2022-08-11T17:23:50.383Z,1.90
2022-08-11T17:26:21.983Z,3.20
2022-08-11T17:28:56.373Z,2.67
2022-08-11T17:31:43.742Z,2.93
2022-08-11T17:34:31.703Z,3.70
2022-08-11T17:37:01.149Z,1.60
2022-08-11T17:39:32.631Z,1.80
2022-08-11T17:42:20.057Z,2.00
2022-08-11T17:45:08.068Z,1.87
2022-08-11T17:47:54.930Z,2.00
2022-08-11T17:50:23.939Z,2.70
2022-08-11T17:53:11.742Z,2.40
2022-08-11T17:55:58.427Z,2.37
2022-08-11T17:58:45.517Z,2.90
2022-08-11T18:01:16.724Z,3.43
2022-08-11T18:03:57.703Z,1.50
2022-08-11T18:06:34.474Z,5.67
2022-08-11T18:09:23.663Z,1.60
2022-08-11T18:12:12.766Z,3.17
2022-08-11T18:15:02.932Z,2.23
2022-08-11T18:17:50.591Z,1.53
2022-08-11T18:20:37.599Z,2.43
2022-08-11T18:23:45.904Z,5.00
2022-08-11T18:26:36.189Z,3.43
2022-08-11T18:29:24.562Z,1.50
2022-08-11T18:32:21.312Z,2.47
2022-08-11T18:35:13.582Z,2.33
2022-08-11T18:38:05.831Z,2.70
2022-08-11T18:40:54.224Z,2.40
2022-08-11T18:43:43.231Z,2.92
2022-08-11T18:46:31.627Z,4.20
2022-08-11T18:49:22.712Z,3.07
2022-08-11T18:52:12.447Z,2.97
2022-08-11T18:55:02.252Z,2.30
2022-08-11T18:57:54.024Z,2.93
2022-08-11T19:00:41.935Z,2.00
2022-08-11T19:03:29.719Z,3.80
2022-08-11T19:06:38.931Z,1.70
2022-08-11T19:09:31.701Z,3.40
2022-08-11T19:12:19.357Z,1.90
2022-08-11T19:15:06.912Z,2.73
2022-08-11T19:17:56.967Z,2.00
2022-08-11T19:20:44.784Z,2.73
2022-08-11T19:23:34.366Z,2.33
2022-08-11T19:26:23.175Z,2.33
2022-08-11T19:30:12.012Z,3.07
2022-08-11T19:32:18.060Z,4.67
2022-08-11T19:35:04.830Z,36.27
2022-08-11T19:37:51.720Z,18.27
2022-08-11T19:40:39.034Z,30.60
2022-08-11T19:43:28.255Z,47.97
2022-08-11T19:46:17.625Z,21.37
2022-08-11T19:49:08.011Z,26.60
2022-08-11T19:51:55.757Z,14.67
2022-08-11T19:54:44.846Z,8.07
2022-08-11T19:57:35.910Z,4.20
2022-08-11T20:00:30.516Z,4.57
2022-08-11T20:03:17.374Z,20.83
2022-08-11T20:06:04.556Z,28.13
2022-08-11T20:08:53.966Z,19.73
2022-08-11T20:11:45.679Z,120.00
2022-08-11T20:14:32.743Z,228.00
2022-08-11T20:17:21.517Z,90.73
2022-08-11T20:20:08.955Z,72.43
2022-08-11T20:22:54.555Z,30.37
2022-08-11T20:25:42.396Z,31.57
2022-08-11T20:28:31.976Z,40.30
2022-08-11T20:31:17.921Z,277.83
2022-08-11T20:34:05.827Z,414.33
2022-08-11T20:36:57.056Z,434.40
2022-08-11T20:39:43.897Z,263.77
2022-08-11T20:42:31.301Z,349.63
2022-08-11T20:45:23.926Z,233.73
2022-08-11T20:48:14.628Z,159.20
2022-08-11T20:51:06.240Z,197.23
2022-08-11T20:53:53.997Z,183.53
2022-08-11T20:56:41.458Z,128.63
2022-08-11T20:59:29.806Z,224.33
2022-08-11T21:02:20.104Z,70.00
2022-08-11T21:05:06.167Z,41.37
2022-08-11T21:11:06.107Z,70.10
2022-08-11T21:13:58.025Z,47.87
2022-08-11T21:16:48.887Z,53.57
2022-08-11T21:19:59.548Z,1287.17
2022-08-11T21:22:59.577Z,1662.53
2022-08-11T21:25:59.370Z,1612.37
2022-08-11T21:28:46.998Z,1171.87
2022-08-11T21:31:34.291Z,1152.57
2022-08-11T21:34:21.638Z,851.87
2022-08-11T21:37:09.322Z,1127.83
2022-08-11T21:39:55.986Z,1322.77
2022-08-11T21:42:44.860Z,1363.37
2022-08-11T21:45:32.832Z,1262.97
2022-08-11T21:48:19.754Z,1088.47
2022-08-11T21:51:05.723Z,797.87
2022-08-11T21:54:16.982Z,502.03
2022-08-11T21:57:04.218Z,173.80
2022-08-11T22:00:03.178Z,113.20
2022-08-11T22:02:57.286Z,254.23
2022-08-11T22:05:44.640Z,506.33
2022-08-11T22:08:31.458Z,407.63
2022-08-11T22:11:32.217Z,408.43
2022-08-11T22:14:19.500Z,166.33
2022-08-11T22:17:06.901Z,114.97
2022-08-11T22:19:54.543Z,67.77
2022-08-11T22:22:51.133Z,47.83
2022-08-11T22:25:51.675Z,65.27
2022-08-11T22:28:41.556Z,76.57
2022-08-11T22:31:29.793Z,98.23
2022-08-11T22:34:20.256Z,112.90
2022-08-11T22:37:08.100Z,127.40
2022-08-11T22:40:02.080Z,144.60
2022-08-11T22:42:49.390Z,135.07
2022-08-11T22:45:35.579Z,127.17
2022-08-11T22:48:24.537Z,148.37
2022-08-11T22:51:13.586Z,127.70
2022-08-11T22:54:00.545Z,277.87
2022-08-11T22:56:48.726Z,138.67
2022-08-11T22:59:36.403Z,78.40
2022-08-11T23:02:23.618Z,50.50
2022-08-11T23:05:10.395Z,34.07
2022-08-11T23:07:59.837Z,49.07
2022-08-11T23:10:46.000Z,31.03
2022-08-11T23:13:32.680Z,36.87
2022-08-11T23:16:19.392Z,53.07
2022-08-11T23:19:07.066Z,306.93
2022-08-11T23:21:54.689Z,460.70
2022-08-11T23:24:44.473Z,444.87
2022-08-11T23:27:32.607Z,235.13
2022-08-11T23:30:20.606Z,130.10
2022-08-11T23:33:11.274Z,120.67
2022-08-11T23:36:03.592Z,324.63
2022-08-11T23:38:50.738Z,356.47
2022-08-11T23:41:38.625Z,211.50
2022-08-11T23:44:25.613Z,222.17
2022-08-11T23:47:14.755Z,167.20
2022-08-11T23:50:01.152Z,204.37
2022-08-11T23:52:47.852Z,135.03
2022-08-11T23:55:33.398Z,140.37
2022-08-11T23:58:21.058Z,124.20
